createdAt,value
2018-01-19T00:01:57.821Z,7.25
2018-01-19T00:04:26.150Z,6.70
2018-01-19T00:06:54.466Z,6.90
2018-01-19T00:09:22.793Z,6.72
2018-01-19T00:11:51.108Z,6.05
2018-01-19T00:14:19.456Z,6.47
2018-01-19T00:16:47.773Z,7.22
2018-01-19T00:19:16.081Z,5.60
2018-01-19T00:21:44.408Z,6.78
2018-01-19T00:24:12.721Z,7.32
2018-01-19T00:26:41.053Z,6.62
2018-01-19T00:29:09.366Z,5.93
2018-01-19T00:31:37.701Z,5.80
2018-01-19T00:34:06.009Z,6.47
2018-01-19T00:36:34.340Z,6.60
2018-01-19T00:39:02.657Z,6.47
2018-01-19T00:41:30.985Z,5.97
2018-01-19T00:43:59.293Z,4.87
2018-01-19T00:46:27.621Z,7.70
2018-01-19T00:48:55.945Z,6.75
2018-01-19T00:51:24.274Z,7.00
2018-01-19T00:53:52.587Z,8.05
2018-01-19T00:56:20.921Z,6.70
2018-01-19T00:58:49.233Z,6.55
2018-01-19T01:01:17.565Z,6.55
2018-01-19T01:03:45.877Z,6.85
2018-01-19T01:06:14.204Z,7.40
2018-01-19T01:08:42.520Z,7.35
2018-01-19T01:11:10.845Z,7.78
2018-01-19T01:13:39.160Z,8.00
2018-01-19T01:16:07.494Z,6.65
2018-01-19T01:18:35.801Z,7.60
2018-01-19T01:21:04.138Z,7.43
2018-01-19T01:23:32.445Z,8.88
2018-01-19T01:26:00.778Z,8.38
2018-01-19T01:28:29.089Z,7.40
2018-01-19T01:30:57.422Z,7.55
2018-01-19T01:33:25.729Z,7.57
2018-01-19T01:35:54.057Z,7.65
2018-01-19T01:38:22.374Z,7.00
2018-01-19T01:40:50.705Z,7.80
2018-01-19T01:43:19.019Z,7.37
2018-01-19T01:45:47.353Z,8.15
2018-01-19T01:48:15.661Z,7.68
2018-01-19T01:50:43.994Z,7.40
2018-01-19T01:53:12.310Z,7.00
2018-01-19T01:55:40.648Z,7.93
2018-01-19T01:58:08.957Z,8.68
2018-01-19T02:00:37.294Z,7.45
2018-01-19T02:03:05.605Z,7.45
2018-01-19T02:05:33.937Z,8.60
2018-01-19T02:08:02.252Z,8.70
2018-01-19T02:10:30.576Z,8.68
2018-01-19T02:12:58.892Z,9.00
2018-01-19T02:15:27.221Z,9.80
2018-01-19T02:17:55.549Z,9.13
2018-01-19T02:20:23.865Z,8.38
2018-01-19T02:22:52.193Z,9.23
2018-01-19T02:25:20.501Z,8.60
2018-01-19T02:27:49.564Z,9.55
2018-01-19T02:30:17.869Z,9.55
2018-01-19T02:32:46.205Z,9.88
2018-01-19T02:35:14.514Z,9.23
2018-01-19T02:37:42.861Z,9.50
2018-01-19T02:40:11.174Z,9.00
2018-01-19T02:42:39.509Z,9.57
2018-01-19T02:45:07.821Z,9.40
2018-01-19T02:47:36.159Z,9.48
2018-01-19T02:50:04.469Z,8.35
2018-01-19T02:52:32.797Z,8.15
2018-01-19T02:55:01.105Z,9.00
2018-01-19T02:57:29.444Z,8.45
2018-01-19T02:59:57.759Z,9.05
2018-01-19T03:02:26.086Z,8.65
2018-01-19T03:04:54.405Z,8.65
2018-01-19T03:07:22.734Z,9.73
2018-01-19T03:09:51.044Z,9.30
2018-01-19T03:12:19.373Z,8.13
2018-01-19T03:14:47.689Z,8.45
2018-01-19T03:17:16.026Z,9.48
2018-01-19T03:19:44.329Z,9.20
2018-01-19T03:22:12.657Z,8.48
2018-01-19T03:24:40.965Z,9.65
2018-01-19T03:27:09.293Z,9.13
2018-01-19T03:29:37.610Z,9.45
2018-01-19T03:32:06.041Z,9.07
2018-01-19T03:34:34.337Z,9.70
2018-01-19T03:37:02.669Z,10.48
2018-01-19T03:39:30.977Z,9.40
2018-01-19T03:41:59.305Z,8.40
2018-01-19T03:44:27.621Z,10.73
2018-01-19T03:46:55.961Z,10.85
2018-01-19T03:49:24.277Z,9.13
2018-01-19T03:51:52.605Z,9.55
2018-01-19T03:54:20.922Z,9.57
2018-01-19T03:56:49.253Z,10.13
2018-01-19T03:59:17.591Z,11.27
2018-01-19T04:01:45.909Z,11.35
2018-01-19T04:04:14.229Z,12.27
2018-01-19T04:06:42.569Z,12.63
2018-01-19T04:09:10.886Z,13.60
2018-01-19T04:11:39.229Z,12.48
2018-01-19T04:14:07.541Z,12.80
2018-01-19T04:16:35.946Z,13.32
2018-01-19T04:19:04.387Z,13.20
2018-01-19T04:21:32.705Z,11.70
2018-01-19T04:24:01.050Z,11.25
2018-01-19T04:26:29.361Z,13.05
2018-01-19T04:28:57.704Z,14.40
2018-01-19T04:31:26.018Z,12.63
2018-01-19T04:33:54.357Z,13.95
2018-01-19T04:36:22.673Z,13.05
2018-01-19T04:38:51.007Z,14.07
2018-01-19T04:41:19.325Z,12.13
2018-01-19T04:43:47.658Z,14.23
2018-01-19T04:46:15.978Z,14.90
2018-01-19T04:48:44.322Z,12.93
2018-01-19T04:51:12.642Z,14.15
2018-01-19T04:53:40.981Z,14.50
2018-01-19T04:56:09.292Z,14.93
2018-01-19T04:58:37.629Z,14.82
2018-01-19T05:01:05.944Z,13.55
2018-01-19T05:03:34.276Z,13.80
2018-01-19T05:06:02.597Z,14.02
2018-01-19T05:08:30.929Z,16.30
2018-01-19T05:10:59.253Z,14.48
2018-01-19T05:13:27.593Z,14.35
2018-01-19T05:15:55.914Z,14.98
2018-01-19T05:18:24.253Z,15.25
2018-01-19T05:20:52.572Z,15.75
2018-01-19T05:23:20.915Z,15.38
2018-01-19T05:25:49.238Z,14.32
2018-01-19T05:28:17.578Z,15.95
2018-01-19T05:30:45.897Z,17.25
2018-01-19T05:33:14.233Z,17.33
2018-01-19T05:35:42.557Z,16.55
2018-01-19T05:38:10.897Z,15.60
2018-01-19T05:40:39.214Z,16.52
2018-01-19T05:43:07.559Z,15.55
2018-01-19T05:45:35.872Z,18.92
2018-01-19T05:48:04.215Z,16.77
2018-01-19T05:50:32.538Z,18.73
2018-01-19T05:53:00.880Z,18.37
2018-01-19T05:55:29.202Z,19.20
2018-01-19T05:57:58.053Z,19.12
2018-01-19T06:00:26.369Z,18.63
2018-01-19T06:02:54.710Z,22.00
2018-01-19T06:05:23.048Z,20.73
2018-01-19T06:07:51.389Z,20.85
2018-01-19T06:10:19.713Z,20.63
2018-01-19T06:12:48.058Z,22.00
2018-01-19T06:15:16.454Z,26.00
2018-01-19T06:17:45.621Z,23.93
2018-01-19T06:20:13.946Z,22.07
2018-01-19T06:25:29.354Z,24.17
2018-01-19T06:27:57.952Z,23.80
2018-01-19T06:30:27.006Z,20.92
2018-01-19T06:32:55.374Z,20.83
2018-01-19T06:35:23.701Z,22.30
2018-01-19T06:37:52.027Z,20.60
2018-01-19T06:40:20.370Z,23.97
2018-01-19T06:42:48.701Z,21.33
2018-01-19T06:45:17.085Z,23.42
2018-01-19T06:47:45.409Z,24.30
2018-01-19T06:50:14.665Z,25.17
2018-01-19T06:52:43.019Z,24.60
2018-01-19T06:55:11.362Z,23.87
2018-01-19T06:57:39.681Z,25.17
2018-01-19T07:00:08.029Z,24.40
2018-01-19T07:02:36.354Z,24.42
2018-01-19T07:05:04.706Z,23.27
2018-01-19T07:07:33.034Z,24.10
2018-01-19T07:10:01.377Z,23.07
2018-01-19T07:12:31.846Z,24.47
2018-01-19T07:15:00.189Z,21.90
2018-01-19T07:17:28.509Z,22.97
2018-01-19T07:19:56.854Z,22.30
2018-01-19T07:22:25.177Z,23.03
2018-01-19T07:24:53.530Z,23.12
2018-01-19T07:27:21.857Z,22.17
2018-01-19T07:29:50.201Z,22.53
2018-01-19T07:32:18.521Z,23.33
2018-01-19T07:34:46.871Z,24.57
2018-01-19T07:37:15.185Z,22.40
2018-01-19T07:39:43.525Z,23.67
2018-01-19T07:42:11.850Z,23.75
2018-01-19T07:44:40.199Z,23.48
2018-01-19T07:47:08.526Z,26.40
2018-01-19T07:49:36.864Z,24.27
2018-01-19T07:52:05.194Z,22.07
2018-01-19T07:54:33.534Z,22.63
2018-01-19T07:57:01.902Z,22.33
2018-01-19T07:59:30.250Z,24.10
2018-01-19T08:01:58.601Z,24.03
2018-01-19T08:04:26.949Z,21.80
2018-01-19T08:06:55.266Z,24.42
2018-01-19T08:09:23.605Z,25.23
2018-01-19T08:11:51.921Z,23.45
2018-01-19T08:14:20.262Z,22.00
2018-01-19T08:16:48.582Z,21.40
2018-01-19T08:19:16.921Z,23.60
2018-01-19T08:21:45.237Z,22.25
2018-01-19T08:24:13.582Z,23.92
2018-01-19T08:26:41.897Z,24.85
2018-01-19T08:29:10.238Z,22.80
2018-01-19T08:31:38.558Z,25.37
2018-01-19T08:34:06.902Z,26.05
2018-01-19T08:36:35.217Z,23.65
2018-01-19T08:39:03.572Z,24.83
2018-01-19T08:41:31.884Z,23.45
2018-01-19T08:44:00.206Z,23.83
2018-01-19T08:46:28.546Z,24.52
2018-01-19T08:48:56.869Z,22.95
2018-01-19T08:51:25.214Z,25.52
2018-01-19T08:53:53.535Z,23.83
2018-01-19T08:56:21.877Z,23.85
2018-01-19T08:58:50.202Z,22.50
2018-01-19T09:01:18.551Z,23.85
2018-01-19T09:03:46.869Z,21.40
2018-01-19T09:06:15.248Z,22.13
2018-01-19T09:08:43.926Z,21.73
2018-01-19T09:11:12.482Z,21.97
2018-01-19T09:13:40.846Z,22.43
2018-01-19T09:16:10.163Z,24.20
2018-01-19T09:18:38.489Z,21.37
2018-01-19T09:21:06.834Z,20.90
2018-01-19T09:23:35.165Z,23.07
2018-01-19T09:26:03.506Z,21.03
2018-01-19T09:28:31.827Z,20.67
2018-01-19T09:31:00.169Z,21.63
2018-01-19T09:33:28.493Z,21.20
2018-01-19T09:35:56.874Z,19.77
2018-01-19T09:38:25.193Z,20.20
2018-01-19T09:40:53.537Z,20.07
2018-01-19T09:43:21.853Z,20.73
2018-01-19T09:45:50.202Z,18.60
2018-01-19T09:48:18.527Z,19.70
2018-01-19T09:50:46.902Z,18.73
2018-01-19T09:53:15.205Z,17.60
2018-01-19T09:55:43.578Z,18.03
2018-01-19T09:58:11.897Z,17.55
2018-01-19T10:00:40.258Z,17.70
2018-01-19T10:03:08.581Z,15.87
2018-01-19T10:05:37.914Z,16.40
2018-01-19T10:08:06.237Z,17.53
2018-01-19T10:10:34.581Z,15.30
2018-01-19T10:13:02.914Z,16.58
2018-01-19T10:15:31.840Z,14.23
2018-01-19T10:18:00.169Z,17.30
2018-01-19T10:20:28.517Z,18.13
2018-01-19T10:22:56.846Z,17.47
2018-01-19T10:25:25.200Z,15.90
2018-01-19T10:27:53.530Z,18.33
2018-01-19T10:30:21.885Z,17.33
2018-01-19T10:32:50.209Z,16.33
2018-01-19T10:35:19.462Z,19.00
2018-01-19T10:37:47.785Z,19.50
2018-01-19T10:40:16.136Z,16.77
2018-01-19T10:42:44.466Z,13.15
2018-01-19T10:45:12.821Z,13.87
2018-01-19T10:47:41.169Z,13.17
2018-01-19T10:50:09.502Z,14.87
2018-01-19T10:52:37.854Z,13.10
2018-01-19T10:55:06.186Z,14.63
2018-01-19T10:57:34.533Z,13.10
2018-01-19T11:00:02.870Z,11.57
2018-01-19T11:02:31.217Z,12.80
2018-01-19T11:04:59.546Z,11.40
2018-01-19T11:07:27.898Z,11.80
2018-01-19T11:09:56.222Z,12.30
2018-01-19T11:12:24.568Z,14.30
2018-01-19T11:14:52.898Z,13.27
2018-01-19T11:17:21.250Z,15.63
2018-01-19T11:19:49.573Z,15.23
2018-01-19T11:22:17.921Z,15.30
2018-01-19T11:24:46.255Z,14.90
2018-01-19T11:27:14.602Z,14.57
2018-01-19T11:29:42.934Z,16.47
2018-01-19T11:32:11.287Z,16.70
2018-01-19T11:34:39.619Z,13.07
2018-01-19T11:37:07.969Z,14.73
2018-01-19T11:39:36.294Z,16.33
2018-01-19T11:42:04.641Z,15.53
2018-01-19T11:44:32.970Z,14.00
2018-01-19T11:47:01.327Z,16.80
2018-01-19T11:49:29.654Z,15.18
2018-01-19T11:51:58.010Z,15.17
2018-01-19T11:54:26.338Z,12.77
2018-01-19T11:56:54.696Z,14.38
2018-01-19T11:59:23.018Z,13.30
2018-01-19T12:01:51.368Z,14.07
2018-01-19T12:04:19.692Z,13.27
2018-01-19T12:06:48.047Z,13.80
2018-01-19T12:09:16.369Z,13.20
2018-01-19T12:11:44.717Z,13.63
2018-01-19T12:14:13.049Z,11.13
2018-01-19T12:16:41.593Z,11.53
2018-01-19T12:19:10.140Z,13.03
2018-01-19T12:21:38.486Z,11.97
2018-01-19T12:24:06.813Z,13.50
2018-01-19T12:26:35.165Z,12.02
2018-01-19T12:29:03.493Z,12.07
2018-01-19T12:31:31.837Z,11.43
2018-01-19T12:34:00.165Z,13.10
2018-01-19T12:36:28.518Z,13.17
2018-01-19T12:38:56.944Z,12.40
2018-01-19T12:41:25.294Z,14.37
2018-01-19T12:43:53.669Z,11.80
2018-01-19T12:46:22.936Z,11.30
2018-01-19T12:48:51.297Z,12.00
2018-01-19T12:51:19.671Z,12.57
2018-01-19T12:53:48.038Z,12.90
2018-01-19T12:56:17.348Z,11.80
2018-01-19T12:58:45.698Z,13.80
2018-01-19T13:01:14.041Z,12.97
2018-01-19T13:03:42.393Z,11.07
2018-01-19T13:06:10.716Z,13.07
2018-01-19T13:08:39.066Z,13.47
2018-01-19T13:11:07.385Z,12.90
2018-01-19T13:13:35.787Z,13.80
2018-01-19T13:16:04.120Z,12.70
2018-01-19T13:18:32.465Z,12.30
2018-01-19T13:21:00.790Z,14.33
2018-01-19T13:23:29.137Z,12.43
2018-01-19T13:25:57.466Z,14.00
2018-01-19T13:28:25.813Z,13.23
2018-01-19T13:30:54.141Z,13.70
2018-01-19T13:33:22.487Z,14.00
2018-01-19T13:35:51.710Z,13.77
2018-01-19T13:38:20.067Z,15.13
2018-01-19T13:40:48.390Z,11.60
2018-01-19T13:43:16.742Z,12.50
2018-01-19T13:45:45.089Z,13.38
2018-01-19T13:48:13.458Z,12.43
2018-01-19T13:50:41.791Z,11.07
2018-01-19T13:53:10.178Z,13.43
2018-01-19T13:55:38.506Z,10.40
2018-01-19T13:58:06.851Z,11.60
2018-01-19T14:00:35.182Z,11.70
2018-01-19T14:03:03.583Z,9.77
2018-01-19T14:05:32.600Z,9.20
2018-01-19T14:08:00.921Z,9.00
2018-01-19T14:10:29.271Z,8.47
2018-01-19T14:12:57.593Z,8.38
2018-01-19T14:15:25.914Z,8.38
2018-01-19T14:17:54.386Z,8.37
2018-01-19T14:20:22.709Z,8.20
2018-01-19T14:22:51.051Z,7.68
2018-01-19T14:25:20.172Z,8.38
2018-01-19T14:27:48.517Z,7.50
2018-01-19T14:30:17.402Z,6.83
2018-01-19T14:32:45.757Z,6.72
2018-01-19T14:35:14.077Z,7.50
2018-01-19T14:37:42.417Z,8.30
2018-01-19T14:40:10.737Z,7.87
2018-01-19T14:42:39.077Z,7.73
2018-01-19T14:45:07.406Z,7.60
2018-01-19T14:47:35.754Z,6.80
2018-01-19T14:50:04.074Z,6.80
2018-01-19T14:52:32.402Z,7.43
2018-01-19T14:55:01.305Z,7.60
2018-01-19T14:57:29.763Z,6.67
2018-01-19T14:59:58.257Z,7.20
2018-01-19T15:02:26.817Z,7.40
2018-01-19T15:04:55.291Z,5.93
2018-01-19T15:07:23.676Z,5.40
2018-01-19T15:09:52.018Z,6.18
2018-01-19T15:12:20.424Z,6.17
2018-01-19T15:14:48.918Z,7.00
2018-01-19T15:17:17.242Z,6.90
2018-01-19T15:19:45.582Z,5.93
2018-01-19T15:22:13.901Z,6.93
2018-01-19T15:24:42.245Z,6.90
2018-01-19T15:27:10.566Z,6.25
2018-01-19T15:29:38.905Z,6.35
2018-01-19T15:32:07.229Z,8.60
2018-01-19T15:34:36.553Z,7.10
2018-01-19T15:37:04.876Z,7.97
2018-01-19T15:39:33.224Z,6.97
2018-01-19T15:42:01.541Z,6.80
2018-01-19T15:44:29.881Z,6.33
2018-01-19T15:46:58.206Z,5.77
2018-01-19T15:49:26.549Z,5.22
2018-01-19T15:51:54.869Z,5.97
2018-01-19T15:54:24.081Z,7.03
2018-01-19T15:56:52.401Z,5.90
2018-01-19T15:59:21.919Z,5.40
2018-01-19T16:01:50.247Z,4.87
2018-01-19T16:04:18.586Z,4.53
2018-01-19T16:06:46.900Z,5.50
2018-01-19T16:09:15.249Z,4.70
2018-01-19T16:11:43.557Z,4.32
2018-01-19T16:14:11.896Z,4.70
2018-01-19T16:16:40.218Z,5.40
2018-01-19T16:19:08.555Z,4.83
2018-01-19T16:21:36.870Z,4.80
2018-01-19T16:24:06.057Z,5.18
2018-01-19T16:26:34.384Z,4.43
2018-01-19T16:29:02.721Z,4.87
2018-01-19T16:31:31.041Z,6.25
2018-01-19T16:33:59.656Z,5.72
2018-01-19T16:36:27.990Z,5.87
2018-01-19T16:38:56.317Z,6.63
2018-01-19T16:41:24.645Z,5.70
2018-01-19T16:43:52.985Z,5.80
2018-01-19T16:46:21.322Z,5.85
2018-01-19T16:48:49.653Z,5.13
2018-01-19T16:51:17.973Z,5.93
2018-01-19T16:53:46.469Z,5.80
2018-01-19T16:56:14.789Z,5.90
2018-01-19T16:58:43.106Z,6.50
2018-01-19T17:01:11.445Z,7.80
2018-01-19T17:03:39.766Z,8.13
2018-01-19T17:06:08.106Z,8.07
2018-01-19T17:08:36.433Z,8.43
2018-01-19T17:11:05.101Z,7.73
2018-01-19T17:13:34.190Z,7.37
2018-01-19T17:16:02.538Z,9.67
2018-01-19T17:18:30.857Z,9.00
2018-01-19T17:20:59.209Z,8.80
2018-01-19T17:23:27.541Z,9.30
2018-01-19T17:25:56.789Z,9.43
2018-01-19T17:28:25.113Z,9.40
2018-01-19T17:30:53.461Z,10.18
2018-01-19T17:33:21.785Z,11.23
2018-01-19T17:35:50.168Z,14.60
2018-01-19T17:38:18.482Z,13.07
2018-01-19T17:40:46.828Z,10.60
2018-01-19T17:43:15.158Z,9.98
2018-01-19T17:45:43.497Z,9.63
2018-01-19T17:48:11.816Z,10.20
2018-01-19T17:50:40.171Z,9.73
2018-01-19T17:53:09.469Z,9.20
2018-01-19T17:55:37.810Z,9.30
2018-01-19T17:58:06.153Z,8.20
2018-01-19T18:00:34.503Z,9.57
2018-01-19T18:03:02.832Z,11.87
2018-01-19T18:05:31.506Z,11.52
2018-01-19T18:07:59.838Z,13.57
2018-01-19T18:10:28.200Z,9.97
2018-01-19T18:12:56.538Z,9.17
2018-01-19T18:15:24.853Z,9.68
2018-01-19T18:17:53.181Z,11.07
2018-01-19T18:20:21.631Z,12.73
2018-01-19T18:22:49.990Z,11.85
2018-01-19T18:25:18.344Z,12.63
2018-01-19T18:27:46.705Z,9.20
2018-01-19T18:30:15.119Z,8.85
2018-01-19T18:32:43.970Z,8.73
2018-01-19T18:35:12.352Z,8.50
2018-01-19T18:37:40.718Z,8.17
2018-01-19T18:40:09.090Z,6.90
2018-01-19T18:42:37.440Z,4.87
2018-01-19T18:45:08.972Z,4.32
2018-01-19T18:47:41.259Z,4.30
2018-01-19T18:50:13.953Z,4.05
2018-01-19T18:52:45.478Z,3.05
2018-01-19T18:55:15.066Z,3.20
2018-01-19T18:57:44.555Z,2.80
2018-01-19T19:00:13.156Z,2.20
2018-01-19T19:02:41.678Z,2.70
2018-01-19T19:05:10.014Z,3.07
2018-01-19T19:07:38.336Z,2.70
2018-01-19T19:10:06.669Z,2.70
2018-01-19T19:12:34.990Z,4.93
2018-01-19T19:15:03.353Z,3.43
2018-01-19T19:17:31.671Z,3.00
2018-01-19T19:19:59.986Z,3.63
2018-01-19T19:22:28.348Z,3.00
2018-01-19T19:24:58.244Z,4.35
2018-01-19T19:27:26.944Z,4.23
2018-01-19T19:29:59.671Z,4.30
2018-01-19T19:32:29.470Z,4.70
2018-01-19T19:34:57.850Z,5.07
2018-01-19T19:37:26.250Z,5.27
2018-01-19T19:39:54.635Z,5.87
2018-01-19T19:42:23.041Z,5.30
2018-01-19T19:44:51.372Z,5.57
2018-01-19T19:47:19.729Z,6.50
2018-01-19T19:49:48.077Z,8.73
2018-01-19T19:52:16.447Z,6.73
2018-01-19T19:54:44.777Z,7.43
2018-01-19T19:57:13.143Z,8.77
2018-01-19T19:59:41.495Z,8.25
2018-01-19T20:02:09.849Z,7.30
2018-01-19T20:04:38.169Z,8.23
2018-01-19T20:07:06.911Z,7.50
2018-01-19T20:09:35.229Z,8.80
2018-01-19T20:12:03.574Z,7.83
2018-01-19T20:14:31.902Z,9.15
2018-01-19T20:17:00.246Z,8.33
2018-01-19T20:19:28.566Z,9.98
2018-01-19T20:21:56.913Z,10.60
2018-01-19T20:24:25.238Z,10.73
2018-01-19T20:26:54.490Z,10.80
2018-01-19T20:29:22.777Z,10.10
2018-01-19T20:31:51.121Z,10.57
2018-01-19T20:34:19.449Z,11.98
2018-01-19T20:36:47.801Z,11.87
2018-01-19T20:39:16.134Z,13.77
2018-01-19T20:41:44.481Z,13.43
2018-01-19T20:44:12.809Z,12.87
2018-01-19T20:46:42.097Z,12.68
2018-01-19T20:49:10.425Z,13.50
2018-01-19T20:51:38.778Z,12.93
2018-01-19T20:54:07.402Z,13.82
2018-01-19T20:56:35.773Z,13.87
2018-01-19T20:59:04.100Z,15.40
2018-01-19T21:01:32.474Z,12.93
2018-01-19T21:04:00.781Z,14.73
2018-01-19T21:06:29.125Z,14.50
2018-01-19T21:08:57.454Z,14.50
2018-01-19T21:11:25.802Z,14.60
2018-01-19T21:13:54.125Z,14.20
2018-01-19T21:16:22.477Z,14.50
2018-01-19T21:18:50.882Z,13.60
2018-01-19T21:21:19.225Z,13.75
2018-01-19T21:23:47.557Z,13.93
2018-01-19T21:26:15.906Z,12.80
2018-01-19T21:28:44.261Z,15.93
2018-01-19T21:31:12.649Z,15.75
2018-01-19T21:33:40.990Z,13.65
2018-01-19T21:36:09.314Z,14.83
2018-01-19T21:38:37.661Z,15.00
2018-01-19T21:41:05.985Z,12.63
2018-01-19T21:43:34.332Z,12.60
2018-01-19T21:46:02.662Z,14.70
2018-01-19T21:48:31.018Z,13.87
2018-01-19T21:50:59.336Z,13.02
2018-01-19T21:53:27.685Z,13.53
2018-01-19T21:55:56.957Z,13.47
2018-01-19T21:58:25.334Z,14.10
2018-01-19T22:00:53.661Z,12.48
2018-01-19T22:03:22.005Z,13.90
2018-01-19T22:05:50.333Z,13.47
2018-01-19T22:08:18.678Z,12.63
2018-01-19T22:10:47.013Z,13.57
2018-01-19T22:13:15.365Z,13.40
2018-01-19T22:15:43.689Z,13.80
2018-01-19T22:18:12.038Z,14.20
2018-01-19T22:20:40.369Z,13.20
2018-01-19T22:23:08.717Z,13.02
2018-01-19T22:25:37.049Z,14.03
2018-01-19T22:28:05.398Z,14.50
2018-01-19T22:30:33.722Z,14.60
2018-01-19T22:33:02.071Z,14.60
2018-01-19T22:35:30.397Z,14.48
2018-01-19T22:37:58.746Z,15.93
2018-01-19T22:40:27.075Z,14.87
2018-01-19T22:42:55.421Z,13.43
2018-01-19T22:45:23.750Z,15.10
2018-01-19T22:47:52.098Z,14.77
2018-01-19T22:50:20.417Z,14.50
2018-01-19T22:52:48.760Z,14.07
2018-01-19T22:55:17.089Z,13.47
2018-01-19T22:57:45.436Z,13.57
2018-01-19T23:00:21.560Z,15.17
2018-01-19T23:02:49.904Z,14.30
2018-01-19T23:05:18.235Z,16.23
2018-01-19T23:07:46.581Z,13.57
2018-01-19T23:10:14.910Z,14.80
2018-01-19T23:12:43.252Z,14.80
2018-01-19T23:15:11.582Z,15.20
2018-01-19T23:17:39.935Z,15.23
2018-01-19T23:20:08.253Z,15.97
2018-01-19T23:22:36.605Z,16.67
2018-01-19T23:25:04.929Z,16.37
2018-01-19T23:27:33.281Z,19.00
2018-01-19T23:30:01.619Z,15.50
2018-01-19T23:32:29.974Z,16.90
2018-01-19T23:34:58.301Z,17.65
2018-01-19T23:37:26.631Z,18.02
2018-01-19T23:39:54.974Z,16.20
2018-01-19T23:42:23.305Z,18.37
2018-01-19T23:44:51.649Z,19.95
2018-01-19T23:47:19.973Z,17.65
2018-01-19T23:49:48.318Z,15.02
2018-01-19T23:52:16.645Z,17.58
2018-01-19T23:54:44.989Z,16.92
2018-01-19T23:57:15.028Z,16.62
2018-01-19T23:59:43.369Z,18.02
